sensor_id;sensor_type;location;lat;lon;timestamp;P1;durP1;ratioP1;P2;durP2;ratioP2
33902;SDS011;20194;50.950;5.346;2023-11-19T00:00:19;2.75;;;1.80;;
33902;SDS011;20194;50.950;5.346;2023-11-19T00:02:45;2.28;;;2.03;;
33902;SDS011;20194;50.950;5.346;2023-11-19T00:05:12;2.55;;;1.80;;
33902;SDS011;20194;50.950;5.346;2023-11-19T00:07:39;5.18;;;1.80;;
33902;SDS011;20194;50.950;5.346;2023-11-19T00:10:11;1.40;;;1.30;;
33902;SDS011;20194;50.950;5.346;2023-11-19T00:12:38;2.75;;;1.95;;
33902;SDS011;20194;50.950;5.346;2023-11-19T00:15:09;2.05;;;1.63;;
33902;SDS011;20194;50.950;5.346;2023-11-19T00:17:39;2.80;;;2.00;;
33902;SDS011;20194;50.950;5.346;2023-11-19T00:20:10;1.95;;;1.55;;
33902;SDS011;20194;50.950;5.346;2023-11-19T00:22:36;2.00;;;1.77;;
33902;SDS011;20194;50.950;5.346;2023-11-19T00:25:02;1.98;;;1.77;;
33902;SDS011;20194;50.950;5.346;2023-11-19T00:27:28;2.80;;;1.73;;
33902;SDS011;20194;50.950;5.346;2023-11-19T00:29:54;3.00;;;1.67;;
33902;SDS011;20194;50.950;5.346;2023-11-19T00:32:20;1.92;;;1.73;;
33902;SDS011;20194;50.950;5.346;2023-11-19T00:34:46;9.82;;;2.58;;
33902;SDS011;20194;50.950;5.346;2023-11-19T00:37:13;7.30;;;2.55;;
33902;SDS011;20194;50.950;5.346;2023-11-19T00:39:41;3.97;;;2.67;;
33902;SDS011;20194;50.950;5.346;2023-11-19T00:42:09;5.03;;;3.03;;
33902;SDS011;20194;50.950;5.346;2023-11-19T00:44:38;4.57;;;2.80;;
33902;SDS011;20194;50.950;5.346;2023-11-19T00:47:04;10.10;;;3.30;;
33902;SDS011;20194;50.950;5.346;2023-11-19T00:49:30;5.47;;;3.70;;
33902;SDS011;20194;50.950;5.346;2023-11-19T00:51:59;7.70;;;3.50;;
33902;SDS011;20194;50.950;5.346;2023-11-19T00:54:27;7.72;;;3.70;;
33902;SDS011;20194;50.950;5.346;2023-11-19T00:56:53;6.55;;;3.42;;
33902;SDS011;20194;50.950;5.346;2023-11-19T00:59:18;8.80;;;4.00;;
33902;SDS011;20194;50.950;5.346;2023-11-19T01:01:44;7.38;;;3.80;;
33902;SDS011;20194;50.950;5.346;2023-11-19T01:04:10;7.05;;;3.75;;
33902;SDS011;20194;50.950;5.346;2023-11-19T01:06:36;8.57;;;3.13;;
33902;SDS011;20194;50.950;5.346;2023-11-19T01:09:02;7.32;;;3.35;;
33902;SDS011;20194;50.950;5.346;2023-11-19T01:11:27;10.40;;;3.33;;
33902;SDS011;20194;50.950;5.346;2023-11-19T01:13:53;9.85;;;4.18;;
33902;SDS011;20194;50.950;5.346;2023-11-19T01:16:19;11.07;;;3.45;;
33902;SDS011;20194;50.950;5.346;2023-11-19T01:18:48;7.25;;;2.75;;
33902;SDS011;20194;50.950;5.346;2023-11-19T01:21:14;9.43;;;2.90;;
33902;SDS011;20194;50.950;5.346;2023-11-19T01:23:41;8.95;;;3.08;;
33902;SDS011;20194;50.950;5.346;2023-11-19T01:26:10;7.85;;;3.40;;
33902;SDS011;20194;50.950;5.346;2023-11-19T01:28:40;12.40;;;3.60;;
33902;SDS011;20194;50.950;5.346;2023-11-19T01:31:10;18.40;;;2.95;;
33902;SDS011;20194;50.950;5.346;2023-11-19T01:33:36;16.45;;;3.85;;
33902;SDS011;20194;50.950;5.346;2023-11-19T01:36:03;18.70;;;3.47;;
33902;SDS011;20194;50.950;5.346;2023-11-19T01:38:29;12.23;;;2.88;;
33902;SDS011;20194;50.950;5.346;2023-11-19T01:40:56;14.35;;;3.28;;
33902;SDS011;20194;50.950;5.346;2023-11-19T01:43:38;11.82;;;2.97;;
33902;SDS011;20194;50.950;5.346;2023-11-19T01:46:07;17.60;;;3.20;;
33902;SDS011;20194;50.950;5.346;2023-11-19T01:48:36;11.02;;;2.50;;
33902;SDS011;20194;50.950;5.346;2023-11-19T01:51:07;13.90;;;3.33;;
33902;SDS011;20194;50.950;5.346;2023-11-19T01:53:34;7.90;;;1.95;;
33902;SDS011;20194;50.950;5.346;2023-11-19T01:56:02;17.60;;;2.65;;
33902;SDS011;20194;50.950;5.346;2023-11-19T01:58:29;13.88;;;2.78;;
33902;SDS011;20194;50.950;5.346;2023-11-19T02:00:56;13.23;;;2.30;;
33902;SDS011;20194;50.950;5.346;2023-11-19T02:03:23;15.75;;;3.08;;
33902;SDS011;20194;50.950;5.346;2023-11-19T02:05:51;13.93;;;2.58;;
33902;SDS011;20194;50.950;5.346;2023-11-19T02:08:18;18.38;;;3.00;;
33902;SDS011;20194;50.950;5.346;2023-11-19T02:10:45;15.63;;;2.85;;
33902;SDS011;20194;50.950;5.346;2023-11-19T02:13:10;19.65;;;2.83;;
33902;SDS011;20194;50.950;5.346;2023-11-19T02:15:38;13.23;;;2.03;;
33902;SDS011;20194;50.950;5.346;2023-11-19T02:18:21;19.67;;;2.83;;
33902;SDS011;20194;50.950;5.346;2023-11-19T02:20:49;18.48;;;2.83;;
33902;SDS011;20194;50.950;5.346;2023-11-19T02:23:16;16.10;;;2.20;;
33902;SDS011;20194;50.950;5.346;2023-11-19T02:25:43;14.27;;;3.00;;
33902;SDS011;20194;50.950;5.346;2023-11-19T02:28:15;12.98;;;2.78;;
33902;SDS011;20194;50.950;5.346;2023-11-19T02:30:41;16.13;;;3.05;;
33902;SDS011;20194;50.950;5.346;2023-11-19T02:33:07;17.73;;;2.97;;
33902;SDS011;20194;50.950;5.346;2023-11-19T02:35:33;23.52;;;3.58;;
33902;SDS011;20194;50.950;5.346;2023-11-19T02:37:59;19.25;;;3.42;;
33902;SDS011;20194;50.950;5.346;2023-11-19T02:40:34;21.83;;;4.03;;
33902;SDS011;20194;50.950;5.346;2023-11-19T02:43:00;24.40;;;3.22;;
33902;SDS011;20194;50.950;5.346;2023-11-19T02:45:26;13.38;;;3.10;;
33902;SDS011;20194;50.950;5.346;2023-11-19T02:47:52;29.13;;;4.63;;
33902;SDS011;20194;50.950;5.346;2023-11-19T02:50:20;24.73;;;3.28;;
33902;SDS011;20194;50.950;5.346;2023-11-19T02:52:53;15.95;;;2.75;;
33902;SDS011;20194;50.950;5.346;2023-11-19T02:55:21;18.35;;;2.65;;
33902;SDS011;20194;50.950;5.346;2023-11-19T02:57:48;23.00;;;3.05;;
33902;SDS011;20194;50.950;5.346;2023-11-19T03:02:48;19.23;;;3.03;;
33902;SDS011;20194;50.950;5.346;2023-11-19T03:05:23;16.55;;;3.25;;
33902;SDS011;20194;50.950;5.346;2023-11-19T03:07:50;21.67;;;3.05;;
33902;SDS011;20194;50.950;5.346;2023-11-19T03:10:15;26.67;;;3.58;;
33902;SDS011;20194;50.950;5.346;2023-11-19T03:12:41;15.32;;;3.75;;
33902;SDS011;20194;50.950;5.346;2023-11-19T03:15:09;27.40;;;4.18;;
33902;SDS011;20194;50.950;5.346;2023-11-19T03:17:36;28.00;;;3.47;;
33902;SDS011;20194;50.950;5.346;2023-11-19T03:20:04;25.77;;;3.70;;
33902;SDS011;20194;50.950;5.346;2023-11-19T03:22:32;16.77;;;3.15;;
33902;SDS011;20194;50.950;5.346;2023-11-19T03:25:03;18.92;;;3.22;;
33902;SDS011;20194;50.950;5.346;2023-11-19T03:27:29;24.90;;;4.03;;
33902;SDS011;20194;50.950;5.346;2023-11-19T03:29:55;17.98;;;3.10;;
33902;SDS011;20194;50.950;5.346;2023-11-19T03:32:20;26.35;;;3.35;;
33902;SDS011;20194;50.950;5.346;2023-11-19T03:34:47;22.33;;;3.08;;
33902;SDS011;20194;50.950;5.346;2023-11-19T03:37:15;21.25;;;3.03;;
33902;SDS011;20194;50.950;5.346;2023-11-19T03:39:42;24.13;;;3.35;;
33902;SDS011;20194;50.950;5.346;2023-11-19T03:42:08;20.48;;;3.45;;
33902;SDS011;20194;50.950;5.346;2023-11-19T03:44:33;28.20;;;3.70;;
33902;SDS011;20194;50.950;5.346;2023-11-19T03:46:59;22.00;;;3.63;;
33902;SDS011;20194;50.950;5.346;2023-11-19T03:49:25;22.33;;;3.35;;
33902;SDS011;20194;50.950;5.346;2023-11-19T03:51:50;22.10;;;3.30;;
33902;SDS011;20194;50.950;5.346;2023-11-19T03:54:16;20.25;;;3.22;;
33902;SDS011;20194;50.950;5.346;2023-11-19T03:56:42;19.15;;;3.47;;
33902;SDS011;20194;50.950;5.346;2023-11-19T03:59:07;29.30;;;3.83;;
33902;SDS011;20194;50.950;5.346;2023-11-19T04:01:35;20.38;;;3.33;;
33902;SDS011;20194;50.950;5.346;2023-11-19T04:04:02;22.88;;;3.25;;
33902;SDS011;20194;50.950;5.346;2023-11-19T04:06:28;18.55;;;3.65;;
33902;SDS011;20194;50.950;5.346;2023-11-19T04:08:54;17.80;;;2.97;;
33902;SDS011;20194;50.950;5.346;2023-11-19T04:11:20;21.25;;;3.00;;
33902;SDS011;20194;50.950;5.346;2023-11-19T04:13:46;26.50;;;3.40;;
33902;SDS011;20194;50.950;5.346;2023-11-19T04:16:13;17.25;;;3.17;;
33902;SDS011;20194;50.950;5.346;2023-11-19T04:18:39;26.65;;;3.15;;
33902;SDS011;20194;50.950;5.346;2023-11-19T04:21:06;20.90;;;2.90;;
33902;SDS011;20194;50.950;5.346;2023-11-19T04:23:32;24.70;;;3.50;;
33902;SDS011;20194;50.950;5.346;2023-11-19T04:25:57;21.95;;;3.33;;
33902;SDS011;20194;50.950;5.346;2023-11-19T04:28:24;14.23;;;2.17;;
33902;SDS011;20194;50.950;5.346;2023-11-19T04:30:52;20.20;;;3.40;;
33902;SDS011;20194;50.950;5.346;2023-11-19T04:33:17;24.33;;;3.40;;
33902;SDS011;20194;50.950;5.346;2023-11-19T04:35:43;24.33;;;3.13;;
33902;SDS011;20194;50.950;5.346;2023-11-19T04:38:09;29.75;;;3.08;;
33902;SDS011;20194;50.950;5.346;2023-11-19T04:40:34;20.73;;;3.03;;
33902;SDS011;20194;50.950;5.346;2023-11-19T04:43:01;22.13;;;4.50;;
33902;SDS011;20194;50.950;5.346;2023-11-19T04:45:26;24.05;;;2.83;;
33902;SDS011;20194;50.950;5.346;2023-11-19T04:47:52;20.17;;;3.45;;
33902;SDS011;20194;50.950;5.346;2023-11-19T04:50:18;17.77;;;3.58;;
33902;SDS011;20194;50.950;5.346;2023-11-19T04:52:43;20.73;;;4.65;;
33902;SDS011;20194;50.950;5.346;2023-11-19T04:55:10;26.00;;;3.67;;
33902;SDS011;20194;50.950;5.346;2023-11-19T04:57:39;19.83;;;3.15;;
33902;SDS011;20194;50.950;5.346;2023-11-19T05:00:05;22.38;;;4.20;;
33902;SDS011;20194;50.950;5.346;2023-11-19T05:02:32;24.75;;;3.70;;
33902;SDS011;20194;50.950;5.346;2023-11-19T05:04:59;31.35;;;3.50;;
33902;SDS011;20194;50.950;5.346;2023-11-19T05:07:24;21.33;;;3.45;;
33902;SDS011;20194;50.950;5.346;2023-11-19T05:09:51;23.48;;;3.22;;
33902;SDS011;20194;50.950;5.346;2023-11-19T05:12:17;20.85;;;3.03;;
33902;SDS011;20194;50.950;5.346;2023-11-19T05:14:43;22.00;;;3.17;;
33902;SDS011;20194;50.950;5.346;2023-11-19T05:17:14;28.60;;;3.65;;
33902;SDS011;20194;50.950;5.346;2023-11-19T05:19:40;19.83;;;3.75;;
33902;SDS011;20194;50.950;5.346;2023-11-19T05:22:05;27.92;;;4.47;;
33902;SDS011;20194;50.950;5.346;2023-11-19T05:24:32;19.05;;;3.35;;
33902;SDS011;20194;50.950;5.346;2023-11-19T05:26:58;27.83;;;3.72;;
33902;SDS011;20194;50.950;5.346;2023-11-19T05:29:24;31.88;;;3.47;;
33902;SDS011;20194;50.950;5.346;2023-11-19T05:31:49;27.70;;;4.18;;
33902;SDS011;20194;50.950;5.346;2023-11-19T05:34:15;30.10;;;5.10;;
33902;SDS011;20194;50.950;5.346;2023-11-19T05:36:40;25.52;;;4.30;;
33902;SDS011;20194;50.950;5.346;2023-11-19T05:39:06;28.60;;;4.40;;
33902;SDS011;20194;50.950;5.346;2023-11-19T05:41:32;22.63;;;3.35;;
33902;SDS011;20194;50.950;5.346;2023-11-19T05:43:57;25.38;;;3.40;;
33902;SDS011;20194;50.950;5.346;2023-11-19T05:46:23;26.13;;;3.65;;
33902;SDS011;20194;50.950;5.346;2023-11-19T05:48:50;34.75;;;4.15;;
33902;SDS011;20194;50.950;5.346;2023-11-19T05:51:17;35.42;;;4.35;;
33902;SDS011;20194;50.950;5.346;2023-11-19T05:53:44;38.58;;;4.28;;
33902;SDS011;20194;50.950;5.346;2023-11-19T05:56:10;30.65;;;5.95;;
33902;SDS011;20194;50.950;5.346;2023-11-19T05:58:36;32.53;;;5.28;;
33902;SDS011;20194;50.950;5.346;2023-11-19T06:01:04;28.92;;;4.70;;
33902;SDS011;20194;50.950;5.346;2023-11-19T06:03:32;35.33;;;4.50;;
33902;SDS011;20194;50.950;5.346;2023-11-19T06:05:58;32.78;;;5.95;;
33902;SDS011;20194;50.950;5.346;2023-11-19T06:08:24;26.05;;;4.18;;
33902;SDS011;20194;50.950;5.346;2023-11-19T06:10:52;30.80;;;3.92;;
33902;SDS011;20194;50.950;5.346;2023-11-19T06:13:17;33.70;;;5.03;;
33902;SDS011;20194;50.950;5.346;2023-11-19T06:15:48;39.85;;;4.63;;
33902;SDS011;20194;50.950;5.346;2023-11-19T06:18:15;35.75;;;4.65;;
33902;SDS011;20194;50.950;5.346;2023-11-19T06:20:41;22.15;;;3.15;;
33902;SDS011;20194;50.950;5.346;2023-11-19T06:23:08;23.77;;;4.45;;
33902;SDS011;20194;50.950;5.346;2023-11-19T06:25:34;20.42;;;3.00;;
33902;SDS011;20194;50.950;5.346;2023-11-19T06:28:00;30.13;;;5.70;;
33902;SDS011;20194;50.950;5.346;2023-11-19T06:30:26;29.23;;;3.95;;
33902;SDS011;20194;50.950;5.346;2023-11-19T06:32:53;32.00;;;3.67;;
33902;SDS011;20194;50.950;5.346;2023-11-19T06:35:19;33.08;;;3.42;;
33902;SDS011;20194;50.950;5.346;2023-11-19T06:37:45;36.35;;;4.05;;
33902;SDS011;20194;50.950;5.346;2023-11-19T06:40:10;21.90;;;3.42;;
33902;SDS011;20194;50.950;5.346;2023-11-19T06:42:37;25.58;;;3.65;;
33902;SDS011;20194;50.950;5.346;2023-11-19T06:45:04;34.33;;;4.10;;
33902;SDS011;20194;50.950;5.346;2023-11-19T06:47:31;28.38;;;3.50;;
33902;SDS011;20194;50.950;5.346;2023-11-19T06:49:57;24.52;;;4.63;;
33902;SDS011;20194;50.950;5.346;2023-11-19T06:52:23;44.38;;;6.38;;
33902;SDS011;20194;50.950;5.346;2023-11-19T06:54:50;31.58;;;3.63;;
33902;SDS011;20194;50.950;5.346;2023-11-19T06:57:15;36.60;;;4.97;;
33902;SDS011;20194;50.950;5.346;2023-11-19T06:59:41;35.38;;;5.47;;
33902;SDS011;20194;50.950;5.346;2023-11-19T07:02:07;31.17;;;4.03;;
33902;SDS011;20194;50.950;5.346;2023-11-19T07:04:34;28.33;;;3.42;;
33902;SDS011;20194;50.950;5.346;2023-11-19T07:06:59;27.35;;;3.65;;
33902;SDS011;20194;50.950;5.346;2023-11-19T07:09:26;25.70;;;4.40;;
33902;SDS011;20194;50.950;5.346;2023-11-19T07:11:51;36.15;;;4.57;;
33902;SDS011;20194;50.950;5.346;2023-11-19T07:14:17;30.67;;;3.97;;
33902;SDS011;20194;50.950;5.346;2023-11-19T07:16:43;35.83;;;3.95;;
33902;SDS011;20194;50.950;5.346;2023-11-19T07:19:11;23.42;;;4.22;;
33902;SDS011;20194;50.950;5.346;2023-11-19T07:21:39;29.67;;;4.82;;
33902;SDS011;20194;50.950;5.346;2023-11-19T07:24:09;25.42;;;3.55;;
33902;SDS011;20194;50.950;5.346;2023-11-19T07:26:40;23.60;;;3.55;;
33902;SDS011;20194;50.950;5.346;2023-11-19T07:29:07;29.48;;;4.10;;
33902;SDS011;20194;50.950;5.346;2023-11-19T07:31:33;19.08;;;4.25;;
33902;SDS011;20194;50.950;5.346;2023-11-19T07:33:58;35.10;;;4.57;;
33902;SDS011;20194;50.950;5.346;2023-11-19T07:36:25;36.03;;;4.47;;
33902;SDS011;20194;50.950;5.346;2023-11-19T07:38:51;45.03;;;6.85;;
33902;SDS011;20194;50.950;5.346;2023-11-19T07:41:18;35.85;;;4.88;;
33902;SDS011;20194;50.950;5.346;2023-11-19T07:43:45;37.72;;;5.35;;
33902;SDS011;20194;50.950;5.346;2023-11-19T07:46:11;27.65;;;4.00;;
33902;SDS011;20194;50.950;5.346;2023-11-19T07:48:39;40.85;;;6.45;;
33902;SDS011;20194;50.950;5.346;2023-11-19T07:51:04;23.02;;;4.03;;
33902;SDS011;20194;50.950;5.346;2023-11-19T07:53:31;31.45;;;5.25;;
33902;SDS011;20194;50.950;5.346;2023-11-19T07:55:58;30.38;;;3.90;;
33902;SDS011;20194;50.950;5.346;2023-11-19T07:58:26;36.67;;;4.15;;
33902;SDS011;20194;50.950;5.346;2023-11-19T08:00:52;28.73;;;4.75;;
33902;SDS011;20194;50.950;5.346;2023-11-19T08:03:19;30.20;;;3.88;;
33902;SDS011;20194;50.950;5.346;2023-11-19T08:05:44;34.08;;;5.00;;
33902;SDS011;20194;50.950;5.346;2023-11-19T08:08:11;23.00;;;3.65;;
33902;SDS011;20194;50.950;5.346;2023-11-19T08:10:37;33.70;;;4.70;;
33902;SDS011;20194;50.950;5.346;2023-11-19T08:13:02;39.45;;;6.82;;
33902;SDS011;20194;50.950;5.346;2023-11-19T08:15:28;42.95;;;7.10;;
33902;SDS011;20194;50.950;5.346;2023-11-19T08:17:54;29.92;;;4.28;;
33902;SDS011;20194;50.950;5.346;2023-11-19T08:20:20;37.17;;;4.78;;
33902;SDS011;20194;50.950;5.346;2023-11-19T08:22:45;27.08;;;4.00;;
33902;SDS011;20194;50.950;5.346;2023-11-19T08:25:11;28.65;;;5.50;;
33902;SDS011;20194;50.950;5.346;2023-11-19T08:27:37;36.08;;;4.90;;
33902;SDS011;20194;50.950;5.346;2023-11-19T08:30:03;28.35;;;3.80;;
33902;SDS011;20194;50.950;5.346;2023-11-19T08:32:31;34.80;;;4.40;;
33902;SDS011;20194;50.950;5.346;2023-11-19T08:34:56;26.90;;;3.97;;
33902;SDS011;20194;50.950;5.346;2023-11-19T08:37:22;29.58;;;4.15;;
33902;SDS011;20194;50.950;5.346;2023-11-19T08:39:48;44.63;;;4.80;;
33902;SDS011;20194;50.950;5.346;2023-11-19T08:42:16;30.70;;;4.80;;
33902;SDS011;20194;50.950;5.346;2023-11-19T08:44:51;28.17;;;4.13;;
33902;SDS011;20194;50.950;5.346;2023-11-19T08:47:19;40.00;;;4.38;;
33902;SDS011;20194;50.950;5.346;2023-11-19T08:49:45;24.10;;;3.85;;
33902;SDS011;20194;50.950;5.346;2023-11-19T08:52:11;30.67;;;4.00;;
33902;SDS011;20194;50.950;5.346;2023-11-19T08:54:37;38.50;;;4.72;;
33902;SDS011;20194;50.950;5.346;2023-11-19T08:57:07;36.33;;;4.68;;
33902;SDS011;20194;50.950;5.346;2023-11-19T08:59:33;30.42;;;4.25;;
33902;SDS011;20194;50.950;5.346;2023-11-19T09:01:59;23.83;;;3.55;;
33902;SDS011;20194;50.950;5.346;2023-11-19T09:04:25;36.08;;;3.53;;
33902;SDS011;20194;50.950;5.346;2023-11-19T09:06:51;31.63;;;3.70;;
33902;SDS011;20194;50.950;5.346;2023-11-19T09:09:16;24.48;;;4.05;;
33902;SDS011;20194;50.950;5.346;2023-11-19T09:11:42;24.60;;;3.13;;
33902;SDS011;20194;50.950;5.346;2023-11-19T09:14:08;15.05;;;2.97;;
33902;SDS011;20194;50.950;5.346;2023-11-19T09:16:34;38.42;;;4.03;;
33902;SDS011;20194;50.950;5.346;2023-11-19T09:18:59;21.15;;;4.30;;
33902;SDS011;20194;50.950;5.346;2023-11-19T09:21:27;29.52;;;4.20;;
33902;SDS011;20194;50.950;5.346;2023-11-19T09:23:55;33.78;;;3.97;;
33902;SDS011;20194;50.950;5.346;2023-11-19T09:26:20;17.98;;;3.53;;
33902;SDS011;20194;50.950;5.346;2023-11-19T09:28:46;36.08;;;4.03;;
33902;SDS011;20194;50.950;5.346;2023-11-19T09:31:15;26.20;;;3.38;;
33902;SDS011;20194;50.950;5.346;2023-11-19T09:33:42;29.75;;;3.78;;
33902;SDS011;20194;50.950;5.346;2023-11-19T09:36:08;28.50;;;3.42;;
33902;SDS011;20194;50.950;5.346;2023-11-19T09:38:36;24.98;;;4.03;;
33902;SDS011;20194;50.950;5.346;2023-11-19T09:41:05;31.05;;;3.92;;
33902;SDS011;20194;50.950;5.346;2023-11-19T09:43:35;23.98;;;3.67;;
33902;SDS011;20194;50.950;5.346;2023-11-19T09:46:04;30.13;;;4.78;;
33902;SDS011;20194;50.950;5.346;2023-11-19T09:48:32;28.08;;;3.75;;
33902;SDS011;20194;50.950;5.346;2023-11-19T09:50:59;26.80;;;3.33;;
33902;SDS011;20194;50.950;5.346;2023-11-19T09:53:26;32.72;;;3.95;;
33902;SDS011;20194;50.950;5.346;2023-11-19T09:55:51;33.83;;;4.22;;
33902;SDS011;20194;50.950;5.346;2023-11-19T09:58:18;22.67;;;4.18;;
33902;SDS011;20194;50.950;5.346;2023-11-19T10:00:44;22.13;;;3.95;;
33902;SDS011;20194;50.950;5.346;2023-11-19T10:03:11;26.73;;;4.47;;
33902;SDS011;20194;50.950;5.346;2023-11-19T10:05:38;25.65;;;3.75;;
33902;SDS011;20194;50.950;5.346;2023-11-19T10:08:04;29.08;;;4.32;;
33902;SDS011;20194;50.950;5.346;2023-11-19T10:10:30;28.92;;;4.32;;
33902;SDS011;20194;50.950;5.346;2023-11-19T10:12:56;20.70;;;2.95;;
33902;SDS011;20194;50.950;5.346;2023-11-19T10:15:23;25.67;;;4.25;;
33902;SDS011;20194;50.950;5.346;2023-11-19T10:17:51;24.15;;;3.35;;
33902;SDS011;20194;50.950;5.346;2023-11-19T10:20:20;32.40;;;4.05;;
33902;SDS011;20194;50.950;5.346;2023-11-19T10:22:46;32.03;;;4.50;;
33902;SDS011;20194;50.950;5.346;2023-11-19T10:25:24;25.77;;;4.05;;
33902;SDS011;20194;50.950;5.346;2023-11-19T10:27:54;26.80;;;3.88;;
33902;SDS011;20194;50.950;5.346;2023-11-19T10:30:21;20.60;;;3.33;;
33902;SDS011;20194;50.950;5.346;2023-11-19T10:35:32;17.60;;;3.10;;
33902;SDS011;20194;50.950;5.346;2023-11-19T10:37:59;25.20;;;3.63;;
33902;SDS011;20194;50.950;5.346;2023-11-19T10:40:47;20.25;;;3.25;;
33902;SDS011;20194;50.950;5.346;2023-11-19T10:43:13;8.68;;;1.85;;
33902;SDS011;20194;50.950;5.346;2023-11-19T10:45:39;17.67;;;3.83;;
33902;SDS011;20194;50.950;5.346;2023-11-19T10:48:05;22.80;;;3.78;;
33902;SDS011;20194;50.950;5.346;2023-11-19T10:53:05;26.80;;;4.38;;
33902;SDS011;20194;50.950;5.346;2023-11-19T10:55:35;19.42;;;3.28;;
33902;SDS011;20194;50.950;5.346;2023-11-19T10:58:04;23.83;;;3.53;;
33902;SDS011;20194;50.950;5.346;2023-11-19T11:06:04;29.90;;;4.68;;
33902;SDS011;20194;50.950;5.346;2023-11-19T11:08:30;20.95;;;3.85;;
33902;SDS011;20194;50.950;5.346;2023-11-19T11:10:57;22.80;;;2.90;;
33902;SDS011;20194;50.950;5.346;2023-11-19T11:13:24;23.63;;;4.90;;
33902;SDS011;20194;50.950;5.346;2023-11-19T11:15:52;22.20;;;4.95;;
33902;SDS011;20194;50.950;5.346;2023-11-19T11:18:21;35.00;;;4.63;;
33902;SDS011;20194;50.950;5.346;2023-11-19T11:20:48;28.73;;;3.58;;
33902;SDS011;20194;50.950;5.346;2023-11-19T11:31:49;35.28;;;5.13;;
33902;SDS011;20194;50.950;5.346;2023-11-19T11:39:34;21.42;;;3.03;;
33902;SDS011;20194;50.950;5.346;2023-11-19T11:50:16;25.58;;;3.05;;
33902;SDS011;20194;50.950;5.346;2023-11-19T11:55:27;31.85;;;4.30;;
33902;SDS011;20194;50.950;5.346;2023-11-19T11:57:58;21.05;;;3.30;;
33902;SDS011;20194;50.950;5.346;2023-11-19T12:00:31;25.30;;;3.03;;
33902;SDS011;20194;50.950;5.346;2023-11-19T12:03:02;26.42;;;3.25;;
33902;SDS011;20194;50.950;5.346;2023-11-19T12:05:30;27.52;;;4.80;;
33902;SDS011;20194;50.950;5.346;2023-11-19T12:07:58;22.40;;;3.53;;
33902;SDS011;20194;50.950;5.346;2023-11-19T12:10:26;34.65;;;4.20;;
33902;SDS011;20194;50.950;5.346;2023-11-19T12:13:00;26.73;;;4.72;;
33902;SDS011;20194;50.950;5.346;2023-11-19T12:15:27;32.13;;;4.25;;
33902;SDS011;20194;50.950;5.346;2023-11-19T12:17:53;26.42;;;3.30;;
33902;SDS011;20194;50.950;5.346;2023-11-19T12:20:21;30.38;;;4.68;;
33902;SDS011;20194;50.950;5.346;2023-11-19T12:22:48;28.80;;;3.58;;
33902;SDS011;20194;50.950;5.346;2023-11-19T12:25:14;21.13;;;3.45;;
33902;SDS011;20194;50.950;5.346;2023-11-19T12:27:42;21.98;;;4.35;;
33902;SDS011;20194;50.950;5.346;2023-11-19T12:30:10;23.77;;;3.78;;
33902;SDS011;20194;50.950;5.346;2023-11-19T12:35:06;28.77;;;3.95;;
33902;SDS011;20194;50.950;5.346;2023-11-19T12:37:38;31.05;;;4.80;;
33902;SDS011;20194;50.950;5.346;2023-11-19T12:40:25;27.42;;;4.13;;
33902;SDS011;20194;50.950;5.346;2023-11-19T12:45:18;29.50;;;3.83;;
33902;SDS011;20194;50.950;5.346;2023-11-19T12:47:46;41.00;;;4.88;;
33902;SDS011;20194;50.950;5.346;2023-11-19T12:50:12;24.55;;;3.50;;
33902;SDS011;20194;50.950;5.346;2023-11-19T12:52:38;23.00;;;3.70;;
33902;SDS011;20194;50.950;5.346;2023-11-19T12:55:05;34.20;;;4.05;;
33902;SDS011;20194;50.950;5.346;2023-11-19T12:57:53;22.70;;;3.15;;
33902;SDS011;20194;50.950;5.346;2023-11-19T13:00:23;21.65;;;3.83;;
33902;SDS011;20194;50.950;5.346;2023-11-19T13:02:55;14.77;;;3.10;;
33902;SDS011;20194;50.950;5.346;2023-11-19T13:07:57;16.45;;;2.67;;
33902;SDS011;20194;50.950;5.346;2023-11-19T13:10:24;23.08;;;3.20;;
33902;SDS011;20194;50.950;5.346;2023-11-19T13:13:02;18.38;;;2.15;;
33902;SDS011;20194;50.950;5.346;2023-11-19T13:15:29;16.63;;;2.42;;
33902;SDS011;20194;50.950;5.346;2023-11-19T13:17:54;21.58;;;3.55;;
33902;SDS011;20194;50.950;5.346;2023-11-19T13:20:20;18.73;;;3.05;;
33902;SDS011;20194;50.950;5.346;2023-11-19T13:25:22;21.05;;;2.97;;
33902;SDS011;20194;50.950;5.346;2023-11-19T13:27:47;22.50;;;3.28;;
33902;SDS011;20194;50.950;5.346;2023-11-19T13:30:13;12.10;;;3.50;;
33902;SDS011;20194;50.950;5.346;2023-11-19T13:32:39;14.82;;;2.97;;
33902;SDS011;20194;50.950;5.346;2023-11-19T13:35:06;21.83;;;3.72;;
33902;SDS011;20194;50.950;5.346;2023-11-19T13:37:33;27.15;;;3.85;;
33902;SDS011;20194;50.950;5.346;2023-11-19T13:40:00;20.23;;;3.25;;
33902;SDS011;20194;50.950;5.346;2023-11-19T13:42:26;22.90;;;3.00;;
33902;SDS011;20194;50.950;5.346;2023-11-19T13:44:52;22.40;;;4.10;;
33902;SDS011;20194;50.950;5.346;2023-11-19T13:47:18;27.63;;;4.85;;
33902;SDS011;20194;50.950;5.346;2023-11-19T13:49:46;19.55;;;3.13;;
33902;SDS011;20194;50.950;5.346;2023-11-19T13:52:12;22.58;;;3.63;;
33902;SDS011;20194;50.950;5.346;2023-11-19T13:54:38;29.45;;;3.72;;
33902;SDS011;20194;50.950;5.346;2023-11-19T13:57:03;23.15;;;2.83;;
33902;SDS011;20194;50.950;5.346;2023-11-19T13:59:33;22.10;;;3.10;;
33902;SDS011;20194;50.950;5.346;2023-11-19T14:04:32;22.17;;;4.32;;
33902;SDS011;20194;50.950;5.346;2023-11-19T14:06:58;26.98;;;3.17;;
33902;SDS011;20194;50.950;5.346;2023-11-19T14:09:24;14.32;;;3.33;;
33902;SDS011;20194;50.950;5.346;2023-11-19T14:11:49;23.35;;;3.05;;
33902;SDS011;20194;50.950;5.346;2023-11-19T14:14:16;22.17;;;3.78;;
33902;SDS011;20194;50.950;5.346;2023-11-19T14:16:42;35.17;;;3.75;;
33902;SDS011;20194;50.950;5.346;2023-11-19T14:19:07;19.25;;;3.92;;
33902;SDS011;20194;50.950;5.346;2023-11-19T14:21:33;25.63;;;3.78;;
33902;SDS011;20194;50.950;5.346;2023-11-19T14:23:59;17.20;;;2.90;;
33902;SDS011;20194;50.950;5.346;2023-11-19T14:26:24;12.95;;;3.08;;
33902;SDS011;20194;50.950;5.346;2023-11-19T14:28:50;27.42;;;3.65;;
33902;SDS011;20194;50.950;5.346;2023-11-19T14:31:16;24.65;;;3.53;;
33902;SDS011;20194;50.950;5.346;2023-11-19T14:33:41;25.15;;;3.42;;
33902;SDS011;20194;50.950;5.346;2023-11-19T14:36:07;25.35;;;3.90;;
33902;SDS011;20194;50.950;5.346;2023-11-19T14:38:33;24.58;;;3.42;;
33902;SDS011;20194;50.950;5.346;2023-11-19T14:40:59;21.88;;;3.58;;
33902;SDS011;20194;50.950;5.346;2023-11-19T14:43:26;22.55;;;3.05;;
33902;SDS011;20194;50.950;5.346;2023-11-19T14:45:52;15.38;;;2.40;;
33902;SDS011;20194;50.950;5.346;2023-11-19T14:48:17;24.75;;;3.47;;
33902;SDS011;20194;50.950;5.346;2023-11-19T14:50:43;24.85;;;3.78;;
33902;SDS011;20194;50.950;5.346;2023-11-19T14:53:12;26.45;;;3.95;;
33902;SDS011;20194;50.950;5.346;2023-11-19T14:55:38;24.60;;;4.32;;
33902;SDS011;20194;50.950;5.346;2023-11-19T14:58:04;28.83;;;4.88;;
33902;SDS011;20194;50.950;5.346;2023-11-19T15:00:30;17.20;;;4.53;;
33902;SDS011;20194;50.950;5.346;2023-11-19T15:02:56;23.70;;;4.18;;
33902;SDS011;20194;50.950;5.346;2023-11-19T15:05:22;24.67;;;3.90;;
33902;SDS011;20194;50.950;5.346;2023-11-19T15:07:47;28.95;;;4.88;;
33902;SDS011;20194;50.950;5.346;2023-11-19T15:10:13;21.00;;;3.47;;
33902;SDS011;20194;50.950;5.346;2023-11-19T15:12:39;26.63;;;3.42;;
33902;SDS011;20194;50.950;5.346;2023-11-19T15:15:09;26.35;;;4.97;;
33902;SDS011;20194;50.950;5.346;2023-11-19T15:17:38;35.70;;;5.13;;
33902;SDS011;20194;50.950;5.346;2023-11-19T15:20:04;25.70;;;4.13;;
33902;SDS011;20194;50.950;5.346;2023-11-19T15:22:31;20.75;;;4.15;;
33902;SDS011;20194;50.950;5.346;2023-11-19T15:24:56;30.60;;;3.42;;